Clinton Township, MI (48035)

8:23 PM EST on December 17, 2014 (GMT -0500)
Hoffman Street Vineyards | Change Station
CLOSE
Current Station
Personal Weather Station
Location: Saint Clair Shores, MI
Elevation: 610 ft
Nearby Weather Stations

Elev 610 ft 42.52 °N, 82.90 °W | Updated 1 minute ago

Overcast
Overcast
29.6 °F
Feels Like 20 °F
N
11.0
Wind Variable Wind from WNW
Gusts 11.0 mph

Today
High -- | Low -- °F
--% Chance of Precip.
Yesterday
High -- | Low -- °F
Precip. -- in
7:55 AM 4:59 PM
Waning Crescent, 18% visible
Pressure 30.10 in
Visibility 10.0 miles
Clouds Overcast 2900 ft
Windchill 20 °F
Dew Point 20 °F
Humidity 68%
Rainfall 0.00 in
Snow Depth Not available.
UV 0 out of 12
Pollen .10 out of 12
Air Quality Not available.
Flu Activity Not available.
SPECI KMTC 180104Z AUTO 28012G18KT 10SM OVC029 M02/M07 A3010 RMK AO2 $

More Conditions Fewer Conditions

Pressure 30.10 in
Visibility 10.0 miles
Clouds Overcast 2900 ft
Windchill 20 °F
Dew Point 20 °F
Humidity 68%
Rainfall 0.00 in
Snow Depth Not available.
UV 0 out of 12
Pollen .10 out of 12
Air Quality Not available.
Flu Activity Not available.
SPECI KMTC 180104Z AUTO 28012G18KT 10SM OVC029 M02/M07 A3010 RMK AO2 $

More Conditions Fewer Conditions

10-Day Weather Forecast

Almanac

Astronomy

Dec. 17, 2014 Rise Set
Actual Time
Civil Twilight
Nautical Twilight
Astronomical Twilight
Moon
Length of Visible Light
Length of Day
Tomorrow will be .
, % of the Moon is Illuminated

Today's Extremes

State Highs State Lows

Community

WunderPhotos

Upload Photos

1,778,847 photos uploaded!

WunderBlogs® & News

Nearby

Air Quality

  Air Quality AQ Index Pollutant
Not available.

Snow Depth

Station Depth Elevation

Earthquake Activity

City Distance Mag. Time & Date
Minimum magnitude displayed is 2.5.

Coastal Water Temperatures

Place Temperature

Nearby Weather Stations